Time;durP1;ratioP1;P1;durP2;ratioP2;P2;SDS_P1;SDS_P2;PMS_P1;PMS_P2;Temp;Humidity;BMP_temperature;BMP_pressure;BME280_temperature;BME280_humidity;BME280_pressure;Samples;Min_cycle;Max_cycle;Signal;HPM_P1;HPM_P2
2022/07/25 00:01:42;;;;;;;4.15;3.85;;;30.60;38.10;;;;;;5087884;28;46557;-74
2022/07/25 00:04:10;;;;;;;4.95;4.55;;;30.60;38.10;;;;;;5087747;28;45273;-74
2022/07/25 00:06:37;;;;;;;4.10;3.80;;;30.60;38.10;;;;;;5087974;28;45255;-74
2022/07/25 00:09:04;;;;;;;4.40;4.10;;;30.50;38.10;;;;;;5088263;28;45384;-74
2022/07/25 00:11:31;;;;;;;4.60;4.30;;;30.50;38.10;;;;;;5088071;28;46352;-74
2022/07/25 00:13:58;;;;;;;4.65;4.25;;;30.50;38.20;;;;;;5087681;28;45186;-74
2022/07/25 00:16:26;;;;;;;4.03;3.72;;;30.40;38.10;;;;;;5087976;28;45279;-74
2022/07/25 00:18:53;;;;;;;4.43;4.13;;;30.50;38.10;;;;;;5087841;28;45280;-73
2022/07/25 00:21:19;;;;;;;4.57;4.10;;;30.50;38.20;;;;;;5086912;28;45305;-74
2022/07/25 00:23:46;;;;;;;4.32;4.03;;;30.40;38.20;;;;;;5087765;28;45309;-73
2022/07/25 00:26:13;;;;;;;4.90;4.40;;;30.40;38.20;;;;;;5087629;28;45238;-74
2022/07/25 00:28:40;;;;;;;4.50;4.20;;;30.40;38.30;;;;;;5087553;28;45534;-73
2022/07/25 00:31:07;;;;;;;4.60;4.20;;;30.40;38.40;;;;;;5087411;28;45485;-73
2022/07/25 00:33:35;;;;;;;4.57;4.22;;;30.40;38.30;;;;;;5087283;28;45230;-73
2022/07/25 00:36:02;;;;;;;4.35;4.05;;;30.30;38.30;;;;;;5087484;28;45189;-74
2022/07/25 00:38:28;;;;;;;5.20;4.80;;;30.30;38.30;;;;;;5087376;28;45344;-74
2022/07/25 00:40:55;;;;;;;4.40;4.03;;;30.30;38.30;;;;;;5087391;28;45295;-74
2022/07/25 00:43:22;;;;;;;5.10;4.68;;;30.30;39.00;;;;;;5087365;28;45233;-74
2022/07/25 00:45:49;;;;;;;4.53;4.20;;;30.30;38.40;;;;;;5087313;28;45241;-73
2022/07/25 00:48:15;;;;;;;4.25;3.95;;;30.30;39.00;;;;;;5087513;28;45393;-74
2022/07/25 00:50:44;;;;;;;4.38;4.07;;;30.30;38.40;;;;;;5087039;28;45472;-74
2022/07/25 00:53:11;;;;;;;4.32;3.92;;;30.20;38.30;;;;;;5087098;28;45310;-74
2022/07/25 00:55:37;;;;;;;4.60;4.20;;;30.20;38.40;;;;;;5087176;28;45315;-73
2022/07/25 00:58:04;;;;;;;4.45;4.15;;;30.20;38.40;;;;;;5086568;28;45237;-74
2022/07/25 01:00:31;;;;;;;5.57;4.18;;;30.10;38.40;;;;;;5087013;28;46465;-74
2022/07/25 01:02:58;;;;;;;4.55;4.15;;;30.10;38.40;;;;;;5087018;28;45244;-73
2022/07/25 01:05:25;;;;;;;4.78;4.13;;;30.10;38.50;;;;;;5086908;28;45313;-73
2022/07/25 01:07:53;;;;;;;3.90;3.60;;;30.10;38.40;;;;;;5086321;28;45314;-74
2022/07/25 01:10:19;;;;;;;4.40;4.03;;;30.10;38.40;;;;;;5086796;28;45215;-74
2022/07/25 01:12:50;;;;;;;4.82;4.43;;;30.10;38.50;;;;;;5086954;28;45278;-73
2022/07/25 01:15:17;;;;;;;4.65;4.25;;;30.10;38.40;;;;;;5086921;28;45290;-74
2022/07/25 01:17:44;;;;;;;4.43;4.03;;;30.10;38.50;;;;;;5087203;28;45229;-74
2022/07/25 01:20:16;;;;;;;4.40;4.00;;;30.10;38.60;;;;;;5086791;28;45177;-73
2022/07/25 01:22:43;;;;;;;4.40;4.10;;;30.00;38.50;;;;;;5086888;28;45313;-74
2022/07/25 01:25:09;;;;;;;4.55;4.18;;;30.00;38.50;;;;;;5086899;28;45198;-73
2022/07/25 01:27:36;;;;;;;4.93;4.53;;;30.00;38.60;;;;;;5086934;28;45210;-74
2022/07/25 01:30:04;;;;;;;4.60;4.28;;;30.00;38.70;;;;;;5086435;28;46403;-73
2022/07/25 01:32:31;;;;;;;4.38;4.07;;;29.90;38.60;;;;;;5086700;28;45249;-73
2022/07/25 01:34:58;;;;;;;4.72;4.30;;;30.00;38.70;;;;;;5086718;28;45241;-73
2022/07/25 01:37:26;;;;;;;4.53;4.22;;;29.90;38.70;;;;;;5086770;28;45147;-74
2022/07/25 01:39:53;;;;;;;5.10;4.22;;;29.90;38.70;;;;;;5086418;28;45210;-74
2022/07/25 01:42:20;;;;;;;4.60;4.20;;;29.90;38.70;;;;;;5086578;28;45273;-73
2022/07/25 01:44:46;;;;;;;4.68;4.38;;;29.80;38.60;;;;;;5086743;28;45306;-73
2022/07/25 01:47:13;;;;;;;4.70;4.30;;;29.80;38.60;;;;;;5086794;28;45454;-74
2022/07/25 01:49:40;;;;;;;4.38;4.07;;;29.80;38.70;;;;;;5086192;28;47306;-73
2022/07/25 01:52:07;;;;;;;4.82;4.43;;;29.80;38.70;;;;;;5086377;28;45210;-73
2022/07/25 01:54:35;;;;;;;4.35;4.00;;;29.80;38.70;;;;;;5086137;28;45270;-73
2022/07/25 01:57:02;;;;;;;4.50;4.20;;;29.80;38.70;;;;;;5085736;28;45212;-74
2022/07/25 01:59:28;;;;;;;4.47;4.18;;;29.70;38.70;;;;;;5086000;28;45343;-74
2022/07/25 02:01:55;;;;;;;4.80;4.40;;;29.70;38.70;;;;;;5086117;28;45210;-74
2022/07/25 02:04:22;;;;;;;4.45;4.05;;;29.70;38.70;;;;;;5086224;28;45174;-74
2022/07/25 02:06:49;;;;;;;4.50;4.20;;;29.70;38.60;;;;;;5086713;28;45169;-74
2022/07/25 02:09:16;;;;;;;4.75;4.35;;;29.70;38.70;;;;;;5087229;27;46702;-74
2022/07/25 02:11:44;;;;;;;4.70;4.30;;;29.70;38.80;;;;;;5089626;28;45226;-74
2022/07/25 02:14:11;;;;;;;4.05;3.75;;;29.60;38.70;;;;;;5089863;28;45237;-74
2022/07/25 02:16:37;;;;;;;4.57;4.22;;;29.60;38.70;;;;;;5089853;28;45277;-74
2022/07/25 02:19:04;;;;;;;4.43;4.13;;;29.60;38.80;;;;;;5089377;28;46396;-74
2022/07/25 02:21:31;;;;;;;4.70;4.40;;;29.60;38.80;;;;;;5089496;28;45254;-74
2022/07/25 02:23:58;;;;;;;4.93;4.60;;;29.60;38.80;;;;;;5089652;28;45245;-74
2022/07/25 02:26:25;;;;;;;4.35;4.05;;;29.60;38.90;;;;;;5089719;28;45276;-74
2022/07/25 02:28:53;;;;;;;4.60;4.28;;;29.60;38.90;;;;;;5089147;28;46458;-73
2022/07/25 02:31:20;;;;;;;4.57;4.18;;;29.50;38.80;;;;;;5089316;28;45254;-74
2022/07/25 02:33:46;;;;;;;4.50;4.15;;;29.50;38.80;;;;;;5089497;28;45315;-74
2022/07/25 02:36:13;;;;;;;5.13;4.65;;;29.50;38.80;;;;;;5089577;28;45419;-74
2022/07/25 02:38:40;;;;;;;4.50;4.10;;;29.50;38.90;;;;;;5089034;28;45295;-73
2022/07/25 02:41:07;;;;;;;4.03;3.72;;;29.50;38.90;;;;;;5088483;28;45241;-74
2022/07/25 02:43:34;;;;;;;4.80;4.40;;;29.50;39.00;;;;;;5089333;28;45201;-74
2022/07/25 02:46:02;;;;;;;4.55;4.25;;;29.40;38.90;;;;;;5087036;28;45190;-74
2022/07/25 02:48:29;;;;;;;4.85;4.45;;;29.40;39.00;;;;;;5088887;28;45233;-74
2022/07/25 02:50:56;;;;;;;4.50;4.10;;;29.40;39.00;;;;;;5089026;28;45246;-74
2022/07/25 02:53:22;;;;;;;4.82;4.43;;;29.40;39.10;;;;;;5089164;28;45182;-74
2022/07/25 02:55:49;;;;;;;4.60;4.30;;;29.40;39.00;;;;;;5089318;28;45190;-73
2022/07/25 02:58:16;;;;;;;4.97;4.57;;;29.30;39.10;;;;;;5088719;28;46411;-74
2022/07/25 03:00:43;;;;;;;4.30;4.00;;;29.40;39.20;;;;;;5089001;28;45353;-74
2022/07/25 03:03:11;;;;;;;4.32;4.03;;;29.30;39.10;;;;;;5088980;28;45249;-73
2022/07/25 03:05:38;;;;;;;4.32;4.03;;;29.30;39.10;;;;;;5089105;28;45193;-74
2022/07/25 03:08:05;;;;;;;5.03;4.72;;;29.30;39.20;;;;;;5088829;28;47307;-73
2022/07/25 03:10:33;;;;;;;4.45;4.13;;;29.20;39.10;;;;;;5088755;28;45273;-74
2022/07/25 03:12:59;;;;;;;4.47;4.18;;;29.20;39.10;;;;;;5089141;28;45265;-74
2022/07/25 03:15:26;;;;;;;4.53;4.20;;;29.30;39.20;;;;;;5088988;28;45222;-73
2022/07/25 03:17:53;;;;;;;4.93;4.53;;;29.20;39.20;;;;;;5088571;28;46599;-73
2022/07/25 03:20:21;;;;;;;5.75;4.60;;;29.20;39.30;;;;;;5087891;27;45247;-74
2022/07/25 03:22:48;;;;;;;5.43;4.20;;;29.20;39.20;;;;;;5088687;28;45317;-73
2022/07/25 03:25:15;;;;;;;4.93;4.53;;;29.20;39.30;;;;;;5088700;28;45287;-73
2022/07/25 03:27:41;;;;;;;4.60;4.20;;;29.10;39.20;;;;;;5087639;28;46823;-74
2022/07/25 03:30:11;;;;;;;4.88;4.47;;;29.10;39.40;;;;;;5088309;28;45208;-74
2022/07/25 03:32:37;;;;;;;4.10;3.80;;;29.10;39.30;;;;;;5088668;28;45372;-74
2022/07/25 03:35:05;;;;;;;4.50;4.13;;;29.10;39.30;;;;;;5088604;28;45518;-73
2022/07/25 03:37:33;;;;;;;4.47;4.10;;;29.10;39.30;;;;;;5088307;28;46374;-74
2022/07/25 03:40:00;;;;;;;4.70;4.30;;;29.10;39.30;;;;;;5087827;28;45208;-74
2022/07/25 03:42:27;;;;;;;4.65;4.25;;;29.00;39.30;;;;;;5088814;28;45368;-74
2022/07/25 03:44:53;;;;;;;4.93;4.53;;;29.00;39.30;;;;;;5088566;28;45410;-74
2022/07/25 03:47:20;;;;;;;5.00;4.60;;;29.00;39.40;;;;;;5088223;28;46423;-73
2022/07/25 03:49:47;;;;;;;5.05;4.65;;;28.90;39.30;;;;;;5087981;28;45116;-73
2022/07/25 03:52:14;;;;;;;4.68;4.28;;;28.90;39.40;;;;;;5088188;28;45168;-74
2022/07/25 03:54:42;;;;;;;5.03;4.60;;;28.90;39.40;;;;;;5088277;28;45169;-74
2022/07/25 03:57:10;;;;;;;4.97;4.50;;;28.90;40.00;;;;;;5088127;28;45269;-74
2022/07/25 03:59:37;;;;;;;4.28;3.97;;;28.90;39.40;;;;;;5087929;28;45190;-74
2022/07/25 04:02:04;;;;;;;5.07;4.68;;;28.90;39.40;;;;;;5088089;28;45135;-74
2022/07/25 04:04:30;;;;;;;4.93;4.53;;;28.80;39.30;;;;;;5087903;28;45223;-74
2022/07/25 04:06:57;;;;;;;4.93;4.60;;;28.90;39.40;;;;;;5087715;28;46377;-74
2022/07/25 04:09:24;;;;;;;4.65;4.25;;;28.80;39.40;;;;;;5087571;28;45438;-73
2022/07/25 04:11:52;;;;;;;5.10;4.70;;;28.80;39.40;;;;;;5087593;28;45268;-74
2022/07/25 04:14:19;;;;;;;5.07;4.57;;;28.80;39.40;;;;;;5087372;28;45195;-74
2022/07/25 04:16:46;;;;;;;4.63;4.22;;;28.80;39.40;;;;;;5087911;28;46429;-73
2022/07/25 04:19:12;;;;;;;4.80;4.40;;;28.80;39.50;;;;;;5087435;28;45305;-73
2022/07/25 04:21:39;;;;;;;4.53;4.13;;;28.80;39.50;;;;;;5087915;28;45420;-74
2022/07/25 04:24:07;;;;;;;5.10;4.60;;;28.80;39.50;;;;;;5087947;28;45294;-74
2022/07/25 04:26:33;;;;;;;4.75;4.35;;;28.70;39.50;;;;;;5087558;28;45243;-74
2022/07/25 04:29:02;;;;;;;4.30;4.00;;;28.70;39.50;;;;;;5087293;28;45205;-73
2022/07/25 04:31:29;;;;;;;4.82;4.43;;;28.70;39.40;;;;;;5087561;28;45288;-74
2022/07/25 04:33:56;;;;;;;4.82;4.43;;;28.70;39.40;;;;;;5086467;28;45334;-73
2022/07/25 04:36:23;;;;;;;4.68;4.28;;;28.70;39.40;;;;;;5087184;28;45418;-73
2022/07/25 04:38:50;;;;;;;4.50;4.20;;;28.70;39.50;;;;;;5086931;28;45210;-74
2022/07/25 04:41:17;;;;;;;6.43;4.50;;;28.60;39.50;;;;;;5087810;28;45111;-74
2022/07/25 04:43:43;;;;;;;5.32;4.28;;;28.60;39.50;;;;;;5087818;28;45332;-73
2022/07/25 04:46:11;;;;;;;4.65;4.25;;;28.60;39.50;;;;;;5087259;28;46706;-74
2022/07/25 04:48:38;;;;;;;5.30;4.80;;;28.60;39.60;;;;;;5087488;28;45284;-73
2022/07/25 04:51:06;;;;;;;5.10;4.65;;;28.60;39.50;;;;;;5087399;28;45177;-73
2022/07/25 04:53:33;;;;;;;4.70;4.30;;;28.60;39.60;;;;;;5087713;28;45277;-74
2022/07/25 04:56:00;;;;;;;5.18;4.78;;;28.60;39.60;;;;;;5087101;28;47311;-73
2022/07/25 04:58:26;;;;;;;5.03;4.63;;;28.60;39.60;;;;;;5086696;28;45343;-72
2022/07/25 05:00:53;;;;;;;5.07;4.68;;;28.60;39.50;;;;;;5086765;28;45253;-73
2022/07/25 05:03:21;;;;;;;5.13;4.72;;;28.50;39.60;;;;;;5087327;28;45169;-73
2022/07/25 05:05:48;;;;;;;4.75;4.35;;;28.50;39.70;;;;;;5086969;28;45375;-73
2022/07/25 05:08:15;;;;;;;4.65;4.25;;;28.50;39.70;;;;;;5087020;28;45281;-73
2022/07/25 05:10:42;;;;;;;4.88;4.47;;;28.50;39.80;;;;;;5086894;28;45363;-74
2022/07/25 05:13:09;;;;;;;4.72;4.32;;;28.50;39.80;;;;;;5087285;28;45261;-74
2022/07/25 05:15:36;;;;;;;5.20;4.70;;;28.40;39.90;;;;;;5086712;28;45345;-73
2022/07/25 05:18:03;;;;;;;5.10;4.70;;;28.40;39.90;;;;;;5086845;28;45170;-73
2022/07/25 05:20:31;;;;;;;4.47;4.18;;;28.40;40.00;;;;;;5087235;28;45363;-73
2022/07/25 05:22:58;;;;;;;5.03;4.55;;;28.40;40.00;;;;;;5087366;28;45265;-74
2022/07/25 05:25:25;;;;;;;4.90;4.50;;;28.40;40.00;;;;;;5086288;28;45290;-74
2022/07/25 05:27:53;;;;;;;5.30;4.78;;;28.40;40.10;;;;;;5086565;28;45201;-73
2022/07/25 05:30:20;;;;;;;4.95;4.55;;;28.40;40.00;;;;;;5086603;28;45276;-73
2022/07/25 05:32:47;;;;;;;4.80;4.40;;;28.30;40.00;;;;;;5086973;28;45218;-74
2022/07/25 05:35:14;;;;;;;5.07;4.65;;;28.30;40.00;;;;;;5086700;28;47377;-74
2022/07/25 05:37:42;;;;;;;5.20;4.75;;;28.40;40.10;;;;;;5086573;28;45248;-73
2022/07/25 05:40:09;;;;;;;5.05;4.65;;;28.30;40.00;;;;;;5086679;28;45234;-73
2022/07/25 05:42:36;;;;;;;4.80;4.47;;;28.30;40.00;;;;;;5086738;28;45280;-73
2022/07/25 05:45:03;;;;;;;5.07;4.63;;;28.40;40.10;;;;;;5088240;27;46387;-73
2022/07/25 05:47:30;;;;;;;4.70;4.30;;;28.30;40.00;;;;;;5089673;28;45245;-74
2022/07/25 05:49:57;;;;;;;4.72;4.32;;;28.30;40.00;;;;;;5089982;28;45219;-73
2022/07/25 05:52:26;;;;;;;4.63;4.22;;;28.30;40.00;;;;;;5090588;28;45482;-73
2022/07/25 05:54:55;;;;;;;4.95;4.55;;;28.30;40.00;;;;;;5089657;28;46677;-73
2022/07/25 05:57:22;;;;;;;5.20;4.70;;;28.30;40.60;;;;;;5089913;28;45286;-73
2022/07/25 05:59:48;;;;;;;4.47;4.18;;;28.30;40.00;;;;;;5089810;28;45237;-73
2022/07/25 06:02:15;;;;;;;4.38;4.07;;;28.30;40.00;;;;;;5090023;28;45313;-73
2022/07/25 06:04:42;;;;;;;4.88;4.47;;;28.30;40.00;;;;;;5089616;28;45295;-73
2022/07/25 06:07:09;;;;;;;4.45;4.05;;;28.40;40.10;;;;;;5089637;28;45176;-73
2022/07/25 06:09:36;;;;;;;4.45;4.15;;;28.30;40.00;;;;;;5089690;28;45230;-74
2022/07/25 06:12:04;;;;;;;4.93;4.53;;;28.40;40.10;;;;;;5089967;28;45198;-74
2022/07/25 06:14:31;;;;;;;5.43;4.75;;;28.30;40.00;;;;;;5089529;28;47340;-74
2022/07/25 06:16:58;;;;;;;4.82;4.43;;;28.40;40.10;;;;;;5089628;28;45285;-73
2022/07/25 06:19:25;;;;;;;4.40;4.10;;;28.30;40.00;;;;;;5089998;28;45256;-73
2022/07/25 06:21:52;;;;;;;4.40;3.92;;;28.40;40.10;;;;;;5089754;28;45437;-73
2022/07/25 06:24:18;;;;;;;4.72;4.32;;;28.30;40.00;;;;;;5089429;28;46401;-74
2022/07/25 06:26:45;;;;;;;5.15;4.75;;;28.40;40.00;;;;;;5089508;28;45261;-74
2022/07/25 06:29:13;;;;;;;4.40;4.05;;;28.40;40.00;;;;;;5089717;28;45469;-73
2022/07/25 06:31:40;;;;;;;5.45;4.57;;;28.40;40.00;;;;;;5089273;28;45344;-74
2022/07/25 06:34:07;;;;;;;4.65;4.25;;;28.40;40.00;;;;;;5088855;28;45585;-74
2022/07/25 06:36:34;;;;;;;4.60;4.20;;;28.40;40.00;;;;;;5089590;28;45305;-73
2022/07/25 06:39:01;;;;;;;4.70;4.30;;;28.40;40.00;;;;;;5089120;28;45488;-74
2022/07/25 06:41:28;;;;;;;4.90;4.50;;;28.40;40.00;;;;;;5089391;28;45360;-73
2022/07/25 06:43:54;;;;;;;4.90;4.50;;;28.40;39.90;;;;;;5089071;28;46380;-73
2022/07/25 06:46:23;;;;;;;4.65;4.25;;;28.40;40.60;;;;;;5088792;28;45190;-73
2022/07/25 06:48:50;;;;;;;4.68;4.38;;;28.50;40.00;;;;;;5089433;28;45365;-73
2022/07/25 06:51:16;;;;;;;4.82;4.40;;;28.50;39.90;;;;;;5089306;28;45483;-74
2022/07/25 06:53:43;;;;;;;4.28;3.97;;;28.50;39.90;;;;;;5089171;28;46452;-74
2022/07/25 06:56:10;;;;;;;4.80;4.40;;;28.50;39.90;;;;;;5087825;27;45260;-73
2022/07/25 06:58:37;;;;;;;4.75;4.28;;;28.50;39.80;;;;;;5088300;28;45308;-73
2022/07/25 07:01:04;;;;;;;4.20;3.85;;;28.50;39.80;;;;;;5088108;28;45298;-73
2022/07/25 07:03:36;;;;;;;4.50;4.10;;;28.60;39.90;;;;;;5077746;28;46656;-73
2022/07/25 07:06:04;;;;;;;5.20;4.70;;;28.60;39.90;;;;;;5087998;28;45489;-73
2022/07/25 07:08:30;;;;;;;5.13;4.72;;;28.60;39.90;;;;;;5088878;28;45452;-73
2022/07/25 07:10:57;;;;;;;4.80;4.40;;;28.60;39.90;;;;;;5087203;28;45329;-73
2022/07/25 07:13:24;;;;;;;4.88;4.47;;;28.60;40.00;;;;;;5089723;27;46405;-73
2022/07/25 07:15:51;;;;;;;4.35;4.05;;;28.60;40.00;;;;;;5094811;27;45341;-73
2022/07/25 07:18:18;;;;;;;5.07;4.65;;;28.70;40.10;;;;;;5095248;27;45346;-72
2022/07/25 07:20:46;;;;;;;6.13;4.60;;;28.70;40.00;;;;;;5088086;27;44886;-74
2022/07/25 07:23:13;;;;;;;4.97;4.57;;;28.70;39.90;;;;;;5086402;28;45459;-74
2022/07/25 07:25:40;;;;;;;4.97;4.50;;;28.80;39.90;;;;;;5087054;28;45382;-74
2022/07/25 07:28:07;;;;;;;5.18;4.50;;;28.80;39.70;;;;;;5088215;28;45222;-74
2022/07/25 07:30:34;;;;;;;5.10;4.60;;;28.90;39.80;;;;;;5088261;28;45205;-74
2022/07/25 07:33:01;;;;;;;4.97;4.57;;;28.90;39.70;;;;;;5074868;28;46413;-74
2022/07/25 07:35:28;;;;;;;6.30;4.75;;;28.90;39.70;;;;;;5067683;28;45242;-73
2022/07/25 07:37:56;;;;;;;4.47;4.13;;;28.90;39.60;;;;;;5088004;28;45361;-74
2022/07/25 07:40:25;;;;;;;7.00;4.80;;;29.00;39.60;;;;;;5088532;28;45373;-74
2022/07/25 07:42:52;;;;;;;4.15;3.85;;;29.00;39.60;;;;;;5087699;28;46436;-73
2022/07/25 07:45:20;;;;;;;4.90;4.50;;;29.10;39.60;;;;;;5087214;28;45254;-73
2022/07/25 07:47:47;;;;;;;6.45;4.70;;;29.10;39.50;;;;;;5086563;28;45269;-74
2022/07/25 07:50:14;;;;;;;4.90;4.43;;;29.10;39.50;;;;;;5087159;28;45249;-73
2022/07/25 07:52:41;;;;;;;4.68;4.28;;;29.10;39.40;;;;;;5087374;28;45506;-74
2022/07/25 07:57:54;;;;;;;4.90;4.50;;;29.20;39.50;;;;;;5085516;28;45368;-73
2022/07/25 08:00:21;;;;;;;5.18;4.68;;;29.20;39.40;;;;;;5088313;28;45356;-73
2022/07/25 08:02:49;;;;;;;4.60;4.15;;;29.30;39.50;;;;;;5087805;28;45203;-74
2022/07/25 08:05:20;;;;;;;5.03;4.53;;;29.30;39.50;;;;;;5087824;28;45295;-73
2022/07/25 08:07:47;;;;;;;4.70;4.30;;;29.30;39.40;;;;;;5088221;27;45408;-74
2022/07/25 08:10:15;;;;;;;4.65;4.25;;;29.30;39.40;;;;;;5087734;28;45535;-73
2022/07/25 08:12:42;;;;;;;5.03;4.53;;;29.40;39.50;;;;;;5086917;28;46430;-73
2022/07/25 08:15:10;;;;;;;4.60;4.20;;;29.40;39.40;;;;;;5086978;28;45307;-74
2022/07/25 08:17:37;;;;;;;5.05;4.65;;;29.40;39.30;;;;;;5087695;28;45373;-74
2022/07/25 08:20:07;;;;;;;4.80;4.32;;;29.40;39.30;;;;;;5088059;28;45304;-74
2022/07/25 08:22:38;;;;;;;5.35;4.68;;;29.40;39.30;;;;;;5087307;28;47531;-74
2022/07/25 08:25:06;;;;;;;4.60;4.20;;;29.50;39.30;;;;;;5087848;28;45309;-74
2022/07/25 08:27:35;;;;;;;5.03;4.53;;;29.50;39.30;;;;;;5087578;28;45283;-74
2022/07/25 08:30:01;;;;;;;4.88;4.47;;;29.60;39.30;;;;;;5087689;28;45303;-74
2022/07/25 08:32:28;;;;;;;4.63;4.00;;;29.60;39.30;;;;;;5087365;28;46396;-74
2022/07/25 08:34:55;;;;;;;4.68;4.28;;;29.60;39.20;;;;;;5087206;28;45186;-74
2022/07/25 08:37:22;;;;;;;4.90;4.50;;;29.60;39.20;;;;;;5087334;28;45325;-74
2022/07/25 08:39:50;;;;;;;4.47;4.07;;;29.60;39.20;;;;;;5086524;28;45287;-74
2022/07/25 08:42:17;;;;;;;4.70;4.30;;;29.70;39.20;;;;;;5086841;28;46354;-74
2022/07/25 08:44:48;;;;;;;4.90;4.45;;;29.70;39.20;;;;;;5087220;28;45328;-74
2022/07/25 08:47:14;;;;;;;5.20;4.70;;;29.70;39.20;;;;;;5087181;28;45312;-75
2022/07/25 08:49:41;;;;;;;4.93;4.53;;;29.70;39.10;;;;;;5087277;28;45402;-74
2022/07/25 08:52:13;;;;;;;4.45;4.15;;;29.80;39.20;;;;;;5086944;28;45234;-74
2022/07/25 08:54:40;;;;;;;4.72;4.35;;;29.80;39.20;;;;;;5087028;28;45292;-74
2022/07/25 08:57:07;;;;;;;5.10;4.45;;;29.80;39.10;;;;;;5085582;28;45465;-73
2022/07/25 08:59:34;;;;;;;4.90;4.50;;;29.80;39.10;;;;;;5084986;28;45386;-73
2022/07/25 09:02:05;;;;;;;6.82;5.13;;;29.90;39.20;;;;;;5088549;28;45210;-72
2022/07/25 09:04:33;;;;;;;4.72;4.32;;;29.90;39.70;;;;;;5087820;28;45383;-72
2022/07/25 09:07:00;;;;;;;7.88;4.13;;;30.00;39.90;;;;;;5087693;28;45221;-75
2022/07/25 09:09:30;;;;;;;6.50;4.50;;;30.10;40.00;;;;;;5088336;28;45362;-74
2022/07/25 09:11:57;;;;;;;11.35;4.40;;;30.10;39.50;;;;;;5087311;28;45526;-74
2022/07/25 09:14:24;;;;;;;7.38;4.15;;;30.10;39.50;;;;;;5086701;28;45218;-75
2022/07/25 09:16:51;;;;;;;6.97;4.85;;;30.20;39.60;;;;;;5086883;28;45222;-74
2022/07/25 09:19:20;;;;;;;5.70;4.65;;;30.20;39.30;;;;;;5088372;27;45378;-78
2022/07/25 09:21:58;;;;;;;7.25;4.35;;;30.30;39.60;;;;;;5090999;28;46424;-74
2022/07/25 09:24:24;;;;;;;7.32;4.60;;;30.30;39.90;;;;;;5091029;28;45280;-75
2022/07/25 09:26:52;;;;;;;7.13;4.57;;;30.40;40.20;;;;;;5091167;28;45209;-74
2022/07/25 09:29:21;;;;;;;6.07;4.10;;;30.40;39.90;;;;;;5090608;28;45403;-75
2022/07/25 09:31:48;;;;;;;7.38;4.57;;;30.40;39.80;;;;;;5091636;28;45305;-77
2022/07/25 09:34:28;;;;;;;6.13;4.60;;;30.40;39.60;;;;;;5091864;28;45400;-72
2022/07/25 09:36:55;;;;;;;9.02;4.72;;;30.50;40.80;;;;;;5091456;28;45423;-74
2022/07/25 09:39:31;;;;;;;7.65;4.68;;;30.50;41.50;;;;;;5090986;28;45408;-76
2022/07/25 09:41:58;;;;;;;9.60;4.70;;;30.50;41.10;;;;;;5085647;28;46396;-75
2022/07/25 09:44:29;;;;;;;9.98;4.95;;;30.70;41.00;;;;;;5090180;28;45277;-77
2022/07/25 09:46:56;;;;;;;11.07;6.03;;;30.70;40.60;;;;;;5091001;28;45386;-76
2022/07/25 09:49:24;;;;;;;11.05;5.18;;;30.80;41.00;;;;;;5090640;28;45321;-71
2022/07/25 09:51:51;;;;;;;11.05;5.05;;;30.80;41.70;;;;;;5088129;28;47655;-72
2022/07/25 09:54:19;;;;;;;11.43;5.32;;;30.90;41.00;;;;;;5090062;28;45472;-77
2022/07/25 09:56:46;;;;;;;9.65;4.93;;;31.00;41.00;;;;;;5089057;28;45492;-76
2022/07/25 09:59:13;;;;;;;11.27;5.07;;;31.00;41.10;;;;;;5088917;28;45499;-76
2022/07/25 10:01:45;;;;;;;11.70;5.30;;;31.00;40.30;;;;;;5090332;28;46380;-77
2022/07/25 10:04:14;;;;;;;12.38;5.70;;;31.10;40.30;;;;;;5069696;28;45333;-76
2022/07/25 10:06:48;;;;;;;11.50;4.82;;;31.10;40.80;;;;;;5078855;28;45224;-74
2022/07/25 10:09:15;;;;;;;8.60;5.50;;;31.20;40.90;;;;;;5088046;28;45545;-74
2022/07/25 10:11:43;;;;;;;10.80;5.38;;;31.30;40.80;;;;;;5089005;28;45337;-74
2022/07/25 10:14:11;;;;;;;11.35;4.72;;;31.40;40.70;;;;;;5086680;28;45403;-74
2022/07/25 10:16:45;;;;;;;9.63;5.10;;;31.40;40.70;;;;;;5089736;28;45411;-75
2022/07/25 10:19:11;;;;;;;9.65;5.70;;;31.50;41.20;;;;;;5087580;28;45425;-76
2022/07/25 10:21:38;;;;;;;14.10;5.40;;;31.60;41.10;;;;;;5088871;28;45355;-75
2022/07/25 10:24:08;;;;;;;9.90;5.50;;;31.60;42.60;;;;;;5088196;28;44625;-74
2022/07/25 10:26:37;;;;;;;8.40;5.10;;;31.70;41.20;;;;;;5086498;28;45477;-73
2022/07/25 10:29:08;;;;;;;12.52;5.68;;;31.80;40.80;;;;;;5089274;28;45166;-74
2022/07/25 10:31:36;;;;;;;11.93;5.32;;;31.80;40.30;;;;;;5086008;28;47328;-73
2022/07/25 10:34:04;;;;;;;8.60;4.90;;;31.80;40.10;;;;;;5089138;28;45209;-74
2022/07/25 10:36:42;;;;;;;10.57;5.20;;;31.90;40.00;;;;;;5089442;28;45189;-76
2022/07/25 10:39:12;;;;;;;9.63;4.95;;;31.90;39.80;;;;;;5089291;28;45223;-75
2022/07/25 10:41:39;;;;;;;7.05;4.85;;;32.00;39.80;;;;;;5089316;28;45477;-76
2022/07/25 10:44:11;;;;;;;8.52;4.60;;;32.00;39.60;;;;;;5089779;28;45210;-75
2022/07/25 10:46:38;;;;;;;8.88;4.82;;;32.00;39.50;;;;;;5086180;28;45277;-74
2022/07/25 10:49:06;;;;;;;6.07;4.38;;;32.10;39.70;;;;;;5089378;28;45190;-75
2022/07/25 10:51:33;;;;;;;8.88;4.88;;;32.10;39.60;;;;;;5088588;28;46669;-74
2022/07/25 10:54:00;;;;;;;7.00;4.55;;;32.20;39.70;;;;;;5089041;28;45321;-76
2022/07/25 10:56:29;;;;;;;9.55;5.22;;;32.30;39.70;;;;;;5089082;28;45307;-74
2022/07/25 10:58:57;;;;;;;7.10;5.38;;;32.30;39.70;;;;;;5088402;28;45404;-73
2022/07/25 11:01:25;;;;;;;5.57;4.50;;;32.40;39.50;;;;;;5087930;28;46382;-73
2022/07/25 11:03:52;;;;;;;6.53;4.80;;;32.50;39.20;;;;;;5088535;28;45328;-73
2022/07/25 11:06:30;;;;;;;5.28;4.47;;;32.60;39.00;;;;;;5088823;28;45189;-74
2022/07/25 11:08:59;;;;;;;4.53;4.13;;;32.60;38.40;;;;;;5089059;28;45178;-73
2022/07/25 11:11:39;;;;;;;7.68;5.95;;;32.70;37.70;;;;;;5087648;28;45469;-73
2022/07/25 11:14:06;;;;;;;6.32;5.72;;;32.80;37.30;;;;;;5088318;28;45193;-74
2022/07/25 11:16:33;;;;;;;7.05;5.05;;;32.90;37.10;;;;;;5088981;28;45308;-74
2022/07/25 11:19:00;;;;;;;5.75;5.20;;;33.00;36.50;;;;;;5088788;28;45296;-74
2022/07/25 11:21:26;;;;;;;5.00;4.60;;;33.00;36.40;;;;;;5088096;28;46350;-74
2022/07/25 11:23:53;;;;;;;5.70;4.80;;;33.10;36.90;;;;;;5088565;28;45320;-74
2022/07/25 11:26:20;;;;;;;5.30;4.68;;;33.10;36.20;;;;;;5088584;28;45143;-73
2022/07/25 11:28:49;;;;;;;5.65;4.90;;;33.20;36.10;;;;;;5088604;28;45190;-73
2022/07/25 11:31:17;;;;;;;5.30;4.80;;;33.20;36.20;;;;;;5088104;28;46359;-73
2022/07/25 11:33:46;;;;;;;6.00;4.57;;;33.20;35.60;;;;;;5088349;28;45196;-73
2022/07/25 11:36:13;;;;;;;7.25;4.95;;;33.20;35.70;;;;;;5088457;28;45190;-73
2022/07/25 11:38:40;;;;;;;7.68;4.70;;;33.30;35.70;;;;;;5088434;28;45419;-73
2022/07/25 11:41:07;;;;;;;4.80;4.40;;;33.30;35.70;;;;;;5087908;28;45561;-74
2022/07/25 11:43:33;;;;;;;8.65;4.60;;;33.30;35.60;;;;;;5087780;28;45237;-75
2022/07/25 11:46:02;;;;;;;5.00;4.40;;;33.40;35.60;;;;;;5088681;28;45241;-75
2022/07/25 11:48:34;;;;;;;5.35;4.35;;;33.40;35.60;;;;;;5088093;28;45367;-75
2022/07/25 11:51:12;;;;;;;4.63;4.15;;;33.40;35.10;;;;;;5087964;28;45737;-74
2022/07/25 11:53:40;;;;;;;4.93;4.43;;;33.40;34.00;;;;;;5088212;28;45330;-76
2022/07/25 11:56:12;;;;;;;4.10;3.70;;;33.50;34.10;;;;;;5088654;28;45299;-75
2022/07/25 11:58:39;;;;;;;4.30;4.00;;;33.50;34.20;;;;;;5088660;28;45484;-74
2022/07/25 12:01:13;;;;;;;5.88;3.97;;;33.60;33.50;;;;;;5087729;28;45292;-74
2022/07/25 12:03:39;;;;;;;4.25;3.92;;;33.70;33.40;;;;;;5088055;28;45266;-76
2022/07/25 12:06:08;;;;;;;6.60;4.00;;;33.70;33.40;;;;;;5087998;28;45378;-74
2022/07/25 12:08:37;;;;;;;5.10;3.78;;;33.70;33.30;;;;;;5088490;28;45185;-76
2022/07/25 12:11:04;;;;;;;6.13;3.65;;;33.70;33.30;;;;;;5087612;28;45475;-75
2022/07/25 12:13:32;;;;;;;4.10;3.70;;;33.80;33.30;;;;;;5086825;28;45253;-76
2022/07/25 12:15:59;;;;;;;4.60;3.63;;;33.80;32.90;;;;;;5088072;28;45418;-76
2022/07/25 12:18:27;;;;;;;4.60;4.20;;;33.80;33.00;;;;;;5088218;28;45165;-76
2022/07/25 12:20:54;;;;;;;5.13;4.50;;;33.80;32.90;;;;;;5087777;28;45606;-76
2022/07/25 12:23:21;;;;;;;5.18;4.03;;;33.70;32.20;;;;;;5087761;28;45519;-75
2022/07/25 12:25:48;;;;;;;4.20;3.80;;;33.70;33.10;;;;;;5087730;28;45304;-75
2022/07/25 12:28:15;;;;;;;4.75;4.25;;;33.80;33.00;;;;;;5088349;28;45475;-75
2022/07/25 12:30:42;;;;;;;4.80;4.20;;;33.80;32.90;;;;;;5087427;28;45223;-75
2022/07/25 12:33:10;;;;;;;4.80;4.20;;;33.80;32.60;;;;;;5087408;28;45274;-75
2022/07/25 12:35:38;;;;;;;4.22;3.83;;;33.80;32.50;;;;;;5087465;28;44733;-75
2022/07/25 12:38:05;;;;;;;4.72;4.28;;;34.00;32.70;;;;;;5087712;28;45269;-76
2022/07/25 12:40:32;;;;;;;5.22;3.95;;;34.00;32.20;;;;;;5087587;28;45249;-75
2022/07/25 12:42:59;;;;;;;4.63;4.25;;;34.10;32.70;;;;;;5087521;28;45210;-75
2022/07/25 12:45:26;;;;;;;4.47;4.00;;;34.10;32.90;;;;;;5087160;28;45305;-75
2022/07/25 12:47:53;;;;;;;5.68;4.03;;;34.20;33.00;;;;;;5087425;28;44901;-76
2022/07/25 12:50:20;;;;;;;4.43;4.03;;;34.30;33.20;;;;;;5087251;28;45539;-75